Time;durP1;ratioP1;P1;durP2;ratioP2;P2;SDS_P1;SDS_P2;PMS_P1;PMS_P2;Temp;Humidity;BMP_temperature;BMP_pressure;BME280_temperature;BME280_humidity;BME280_pressure;Samples;Min_cycle;Max_cycle;Signal;HPM_P1;HPM_P2
2023/01/25 00:01:36;;;;;;;14.40;9.43;;;;;;;;;;5030530;28;20040;-77
2023/01/25 00:04:02;;;;;;;15.00;9.40;;;;;;;;;;5029987;28;20037;-77
2023/01/25 00:06:28;;;;;;;14.73;9.35;;;;;;;;;;5043259;28;20044;-77
2023/01/25 00:08:55;;;;;;;17.35;10.05;;;;;;;;;;5034546;28;20134;-77
2023/01/25 00:11:21;;;;;;;16.42;9.18;;;;;;;;;;5041047;28;20076;-77
2023/01/25 00:13:47;;;;;;;15.25;10.80;;;;;;;;;;5034724;28;20578;-78
2023/01/25 00:16:13;;;;;;;16.55;10.68;;;;;;;;;;5041443;28;20022;-77
2023/01/25 00:18:39;;;;;;;16.17;10.93;;;;;;;;;;5044502;28;20029;-77
2023/01/25 00:21:12;;;;;;;12.95;9.07;;;;;;;;;;5035134;28;20120;-77
2023/01/25 00:23:38;;;;;;;18.45;11.50;;;;;;;;;;5036233;28;20452;-77
2023/01/25 00:26:04;;;;;;;13.23;10.98;;;;;;;;;;5034363;28;20045;-77
2023/01/25 00:28:30;;;;;;;15.70;11.02;;;;;;;;;;5070891;28;20029;-77
2023/01/25 00:31:00;;;;;;;18.73;9.93;;;;;;;;;;5042753;28;20082;-77
2023/01/25 00:33:26;;;;;;;16.65;9.80;;;;;;;;;;5034786;28;20033;-77
2023/01/25 00:35:56;;;;;;;15.98;10.55;;;;;;;;;;5036438;28;20079;-76
2023/01/25 00:38:30;;;;;;;14.63;9.63;;;;;;;;;;5040536;28;20025;-76
2023/01/25 00:40:57;;;;;;;14.30;9.70;;;;;;;;;;5041048;28;20048;-76
2023/01/25 00:43:23;;;;;;;15.65;10.52;;;;;;;;;;5035285;28;20099;-77
2023/01/25 00:45:49;;;;;;;13.63;9.45;;;;;;;;;;5038475;28;20029;-77
2023/01/25 00:48:15;;;;;;;15.77;10.88;;;;;;;;;;5042327;28;20041;-76
2023/01/25 00:50:42;;;;;;;14.27;9.38;;;;;;;;;;5031793;28;20034;-77
2023/01/25 00:53:08;;;;;;;12.77;9.68;;;;;;;;;;5036347;28;20025;-77
2023/01/25 00:55:34;;;;;;;16.45;9.73;;;;;;;;;;5042264;28;20030;-77
2023/01/25 00:58:00;;;;;;;13.77;9.07;;;;;;;;;;5041285;28;20037;-77
2023/01/25 01:00:26;;;;;;;15.25;9.98;;;;;;;;;;5042357;28;20040;-77
2023/01/25 01:02:52;;;;;;;16.00;9.32;;;;;;;;;;5048359;28;20024;-77
2023/01/25 01:05:18;;;;;;;14.68;9.93;;;;;;;;;;5040060;28;20034;-77
2023/01/25 01:07:44;;;;;;;13.10;10.18;;;;;;;;;;5044067;28;20047;-77
2023/01/25 01:10:10;;;;;;;17.67;10.20;;;;;;;;;;5042415;28;20013;-77
2023/01/25 01:12:36;;;;;;;14.32;10.48;;;;;;;;;;5047487;28;20065;-76
2023/01/25 01:15:04;;;;;;;16.77;10.32;;;;;;;;;;5044494;28;20024;-78
2023/01/25 01:17:30;;;;;;;15.63;10.60;;;;;;;;;;5041815;28;20508;-77
2023/01/25 01:19:56;;;;;;;17.98;10.55;;;;;;;;;;5032929;28;20100;-77
2023/01/25 01:22:22;;;;;;;18.25;11.25;;;;;;;;;;5050062;28;20368;-77
2023/01/25 01:24:48;;;;;;;14.48;10.07;;;;;;;;;;5041943;28;20024;-77
2023/01/25 01:27:14;;;;;;;16.70;10.30;;;;;;;;;;5036655;28;20394;-77
2023/01/25 01:29:40;;;;;;;15.55;9.98;;;;;;;;;;5057803;28;20077;-77
2023/01/25 01:32:06;;;;;;;16.55;11.20;;;;;;;;;;5043692;28;20074;-77
2023/01/25 01:34:32;;;;;;;16.42;11.23;;;;;;;;;;5041124;28;20025;-77
2023/01/25 01:36:58;;;;;;;16.35;11.15;;;;;;;;;;5041293;28;20125;-77
2023/01/25 01:39:25;;;;;;;17.50;11.35;;;;;;;;;;5040679;28;20025;-76
2023/01/25 01:41:52;;;;;;;15.43;10.93;;;;;;;;;;5035068;28;20043;-76
2023/01/25 01:44:21;;;;;;;15.32;10.07;;;;;;;;;;5041628;28;20025;-76
2023/01/25 01:46:58;;;;;;;16.73;10.30;;;;;;;;;;5045749;28;20049;-76
2023/01/25 01:49:28;;;;;;;17.52;11.00;;;;;;;;;;5036837;28;20091;-77
2023/01/25 01:52:00;;;;;;;14.30;10.18;;;;;;;;;;5045792;28;20034;-76
2023/01/25 01:54:44;;;;;;;16.23;10.82;;;;;;;;;;5044537;28;20032;-77
2023/01/25 01:57:22;;;;;;;18.35;11.65;;;;;;;;;;5040585;28;20053;-76
2023/01/25 01:59:50;;;;;;;17.17;10.48;;;;;;;;;;5036803;28;20079;-76
2023/01/25 02:02:16;;;;;;;15.80;11.30;;;;;;;;;;5045857;28;20028;-77
2023/01/25 02:04:44;;;;;;;14.38;9.65;;;;;;;;;;5044272;28;20040;-76
2023/01/25 02:07:16;;;;;;;13.88;9.50;;;;;;;;;;5038017;28;20423;-77
2023/01/25 02:09:44;;;;;;;14.95;10.23;;;;;;;;;;5044388;28;20021;-77
2023/01/25 02:12:11;;;;;;;17.52;10.73;;;;;;;;;;5044351;28;20037;-76
2023/01/25 02:14:40;;;;;;;17.80;10.85;;;;;;;;;;5047358;28;20409;-77
2023/01/25 02:17:06;;;;;;;17.83;11.30;;;;;;;;;;5042362;28;20040;-76
2023/01/25 02:19:41;;;;;;;17.27;10.07;;;;;;;;;;5042778;28;20104;-76
2023/01/25 02:22:09;;;;;;;16.90;10.82;;;;;;;;;;5043287;28;20069;-77
2023/01/25 02:24:36;;;;;;;15.05;10.35;;;;;;;;;;5037581;28;20084;-76
2023/01/25 02:27:02;;;;;;;14.73;9.93;;;;;;;;;;5046654;28;20025;-76
2023/01/25 02:29:29;;;;;;;13.77;10.27;;;;;;;;;;5040253;28;20017;-77
2023/01/25 02:32:05;;;;;;;14.88;9.63;;;;;;;;;;5033999;28;20079;-76
2023/01/25 02:34:31;;;;;;;15.32;10.40;;;;;;;;;;5038591;28;20029;-77
2023/01/25 02:36:57;;;;;;;14.95;9.88;;;;;;;;;;5032941;28;20429;-76
2023/01/25 02:39:25;;;;;;;14.18;9.68;;;;;;;;;;5035128;28;20031;-77
2023/01/25 02:41:51;;;;;;;13.20;9.05;;;;;;;;;;5036770;28;20021;-77
2023/01/25 02:44:29;;;;;;;15.30;9.85;;;;;;;;;;5036142;28;20041;-77
2023/01/25 02:46:55;;;;;;;15.90;9.20;;;;;;;;;;5039530;28;20072;-77
2023/01/25 02:49:21;;;;;;;14.20;9.75;;;;;;;;;;5033671;28;20025;-77
2023/01/25 02:51:48;;;;;;;14.55;9.38;;;;;;;;;;5038294;28;20587;-77
2023/01/25 02:54:16;;;;;;;13.85;9.65;;;;;;;;;;5035316;28;20112;-77
2023/01/25 02:56:42;;;;;;;13.60;9.52;;;;;;;;;;5047237;28;20059;-76
2023/01/25 02:59:08;;;;;;;14.57;8.88;;;;;;;;;;5044516;28;20036;-76
2023/01/25 03:01:36;;;;;;;14.32;9.02;;;;;;;;;;5036597;28;20549;-77
2023/01/25 03:04:02;;;;;;;13.65;8.65;;;;;;;;;;5041596;28;20029;-77
2023/01/25 03:06:28;;;;;;;14.15;9.65;;;;;;;;;;5039607;28;20338;-77
2023/01/25 03:08:54;;;;;;;13.82;9.00;;;;;;;;;;5068754;28;20544;-76
2023/01/25 03:11:20;;;;;;;14.00;9.15;;;;;;;;;;5037032;28;20459;-76
2023/01/25 03:13:47;;;;;;;16.45;9.57;;;;;;;;;;5039527;28;20081;-77
2023/01/25 03:16:13;;;;;;;13.55;8.48;;;;;;;;;;5047350;28;20031;-76
2023/01/25 03:18:40;;;;;;;13.32;8.93;;;;;;;;;;5036756;28;20037;-76
2023/01/25 03:21:07;;;;;;;11.80;8.32;;;;;;;;;;5041066;28;20570;-76
2023/01/25 03:23:34;;;;;;;12.18;8.63;;;;;;;;;;5038135;28;20036;-76
2023/01/25 03:26:06;;;;;;;14.75;9.30;;;;;;;;;;5037768;28;20426;-76
2023/01/25 03:28:32;;;;;;;15.18;9.38;;;;;;;;;;5038260;28;20045;-76
2023/01/25 03:30:58;;;;;;;16.02;9.40;;;;;;;;;;5044208;28;20115;-77
2023/01/25 03:33:24;;;;;;;13.48;8.32;;;;;;;;;;5037269;28;20018;-77
2023/01/25 03:35:54;;;;;;;11.93;8.23;;;;;;;;;;5048334;28;20477;-77
2023/01/25 03:38:20;;;;;;;14.60;8.85;;;;;;;;;;5040677;28;20037;-76
2023/01/25 03:40:47;;;;;;;14.40;9.35;;;;;;;;;;5041802;28;20063;-77
2023/01/25 03:43:13;;;;;;;11.68;8.57;;;;;;;;;;5047460;28;20056;-77
2023/01/25 03:45:39;;;;;;;14.35;9.13;;;;;;;;;;5040782;28;20034;-77
2023/01/25 03:48:05;;;;;;;14.82;8.90;;;;;;;;;;5052244;28;20079;-77
2023/01/25 03:50:31;;;;;;;13.02;7.72;;;;;;;;;;5032630;28;20090;-77
2023/01/25 03:53:05;;;;;;;14.45;8.65;;;;;;;;;;5048929;28;20074;-77
2023/01/25 03:55:32;;;;;;;11.93;8.43;;;;;;;;;;5034210;28;20557;-76
2023/01/25 03:57:58;;;;;;;13.30;8.27;;;;;;;;;;5044861;28;20461;-77
2023/01/25 04:00:24;;;;;;;12.52;8.13;;;;;;;;;;5040993;28;20363;-76
2023/01/25 04:02:50;;;;;;;12.88;9.18;;;;;;;;;;5040684;28;20037;-76
2023/01/25 04:05:16;;;;;;;13.68;7.75;;;;;;;;;;5033112;28;20487;-76
2023/01/25 04:07:42;;;;;;;14.20;8.88;;;;;;;;;;5033072;28;20030;-77
2023/01/25 04:10:09;;;;;;;13.98;9.35;;;;;;;;;;5031897;28;20024;-77
2023/01/25 04:12:35;;;;;;;11.55;7.63;;;;;;;;;;5040415;28;20033;-77
2023/01/25 04:15:01;;;;;;;11.90;8.38;;;;;;;;;;5045405;28;20353;-77
2023/01/25 04:17:27;;;;;;;11.57;7.43;;;;;;;;;;5045427;28;20045;-76
2023/01/25 04:19:53;;;;;;;11.07;8.15;;;;;;;;;;5037020;28;20026;-77
2023/01/25 04:22:19;;;;;;;16.13;8.43;;;;;;;;;;5057281;28;20044;-77
2023/01/25 04:24:45;;;;;;;12.75;8.43;;;;;;;;;;5041925;28;20025;-77
2023/01/25 04:27:11;;;;;;;12.38;7.70;;;;;;;;;;5035077;28;20083;-77
2023/01/25 04:29:38;;;;;;;11.60;8.05;;;;;;;;;;5051099;28;20617;-76
2023/01/25 04:32:04;;;;;;;11.82;8.40;;;;;;;;;;5048571;28;20104;-76
2023/01/25 04:34:30;;;;;;;14.07;7.72;;;;;;;;;;5047101;28;20055;-76
2023/01/25 04:36:56;;;;;;;10.80;7.35;;;;;;;;;;5046648;28;20036;-75
2023/01/25 04:39:22;;;;;;;12.02;7.00;;;;;;;;;;5040483;28;20029;-77
2023/01/25 04:41:48;;;;;;;11.25;6.95;;;;;;;;;;5042565;28;20506;-76
2023/01/25 04:44:14;;;;;;;12.38;8.02;;;;;;;;;;5055209;28;20477;-77
2023/01/25 04:46:40;;;;;;;10.90;7.30;;;;;;;;;;5051028;28;20081;-77
2023/01/25 04:49:06;;;;;;;10.75;6.82;;;;;;;;;;5037026;28;20072;-76
2023/01/25 04:51:32;;;;;;;11.82;7.13;;;;;;;;;;5044378;28;20091;-75
2023/01/25 04:53:58;;;;;;;14.50;7.38;;;;;;;;;;5031682;28;20033;-77
2023/01/25 04:56:24;;;;;;;9.70;6.57;;;;;;;;;;5046198;28;20493;-77
2023/01/25 04:58:50;;;;;;;11.75;8.00;;;;;;;;;;5046805;28;20040;-77
2023/01/25 05:01:16;;;;;;;12.98;7.38;;;;;;;;;;5039720;28;20025;-77
2023/01/25 05:03:42;;;;;;;13.02;6.97;;;;;;;;;;5051197;28;20030;-76
2023/01/25 05:06:08;;;;;;;13.07;8.65;;;;;;;;;;5039643;28;20044;-77
2023/01/25 05:08:35;;;;;;;11.70;7.40;;;;;;;;;;5041261;28;20151;-77
2023/01/25 05:11:01;;;;;;;10.77;7.43;;;;;;;;;;5042101;28;20025;-77
2023/01/25 05:13:27;;;;;;;12.75;8.23;;;;;;;;;;5069742;28;20021;-77
2023/01/25 05:15:55;;;;;;;11.73;7.97;;;;;;;;;;5044137;28;20115;-76
2023/01/25 05:18:21;;;;;;;13.07;7.15;;;;;;;;;;5049116;28;20416;-77
2023/01/25 05:20:47;;;;;;;10.63;7.30;;;;;;;;;;5037057;28;20051;-75
2023/01/25 05:23:13;;;;;;;12.35;7.53;;;;;;;;;;5048152;28;20098;-77
2023/01/25 05:28:24;;;;;;;11.02;6.15;;;;;;;;;;5038722;28;20032;-77
2023/01/25 05:30:50;;;;;;;11.50;7.28;;;;;;;;;;5046332;28;20025;-76
2023/01/25 05:33:16;;;;;;;12.38;7.60;;;;;;;;;;5049839;28;20020;-76
2023/01/25 05:35:43;;;;;;;10.25;7.15;;;;;;;;;;5038848;28;20490;-75
2023/01/25 05:38:09;;;;;;;9.88;6.93;;;;;;;;;;5041894;28;20040;-77
2023/01/25 05:40:35;;;;;;;14.30;7.40;;;;;;;;;;5041371;28;20032;-77
2023/01/25 05:43:01;;;;;;;9.50;6.90;;;;;;;;;;5044136;28;20500;-77
2023/01/25 05:45:28;;;;;;;11.80;6.95;;;;;;;;;;5043289;28;20059;-77
2023/01/25 05:47:58;;;;;;;10.95;6.78;;;;;;;;;;5048534;28;20477;-76
2023/01/25 05:50:24;;;;;;;9.18;6.45;;;;;;;;;;5050283;28;20031;-76
2023/01/25 05:52:51;;;;;;;10.43;6.28;;;;;;;;;;5045619;28;20178;-77
2023/01/25 05:55:17;;;;;;;11.45;7.15;;;;;;;;;;5031116;28;20125;-77
2023/01/25 05:57:43;;;;;;;9.65;6.18;;;;;;;;;;5045034;28;20033;-77
2023/01/25 06:00:10;;;;;;;7.85;5.88;;;;;;;;;;5035671;28;20581;-77
2023/01/25 06:02:36;;;;;;;10.77;6.45;;;;;;;;;;5047257;28;20029;-76
2023/01/25 06:05:03;;;;;;;10.05;6.50;;;;;;;;;;5040328;28;20017;-77
2023/01/25 06:07:29;;;;;;;9.38;6.82;;;;;;;;;;5039818;28;20026;-77
2023/01/25 06:09:55;;;;;;;9.18;6.18;;;;;;;;;;5040924;28;20029;-77
2023/01/25 06:12:21;;;;;;;9.15;6.63;;;;;;;;;;5045309;28;20498;-78
2023/01/25 06:14:47;;;;;;;10.45;6.57;;;;;;;;;;5046940;28;20028;-77
2023/01/25 06:17:14;;;;;;;12.18;7.50;;;;;;;;;;5050270;28;20033;-77
2023/01/25 06:19:40;;;;;;;10.38;6.57;;;;;;;;;;5037612;28;20029;-77
2023/01/25 06:22:08;;;;;;;16.25;7.15;;;;;;;;;;5059039;28;20064;-77
2023/01/25 06:24:34;;;;;;;10.48;6.63;;;;;;;;;;5048408;28;20459;-77
2023/01/25 06:27:01;;;;;;;12.48;6.75;;;;;;;;;;5044736;28;20136;-77
2023/01/25 06:29:27;;;;;;;10.55;6.75;;;;;;;;;;5048094;28;20485;-77
2023/01/25 06:31:54;;;;;;;11.80;7.50;;;;;;;;;;5040662;28;20092;-76
2023/01/25 06:34:21;;;;;;;12.32;7.45;;;;;;;;;;5045047;28;21011;-76
2023/01/25 06:36:48;;;;;;;13.45;7.78;;;;;;;;;;5044378;28;20040;-77
2023/01/25 06:39:14;;;;;;;10.73;6.75;;;;;;;;;;5043723;28;20039;-77
2023/01/25 06:41:40;;;;;;;10.43;6.35;;;;;;;;;;5043413;28;20036;-78
2023/01/25 06:44:06;;;;;;;12.25;7.28;;;;;;;;;;5037948;28;20021;-77
2023/01/25 06:46:32;;;;;;;10.43;6.72;;;;;;;;;;5036487;28;20124;-77
2023/01/25 06:48:59;;;;;;;12.38;7.22;;;;;;;;;;5043718;28;20025;-77
2023/01/25 06:51:25;;;;;;;10.55;6.65;;;;;;;;;;5036083;28;20067;-78
2023/01/25 06:53:51;;;;;;;10.70;6.57;;;;;;;;;;5036891;28;20071;-78
2023/01/25 06:56:19;;;;;;;13.98;6.78;;;;;;;;;;5042057;28;20472;-77
2023/01/25 06:58:45;;;;;;;12.18;7.75;;;;;;;;;;5041396;28;20068;-77
2023/01/25 07:01:13;;;;;;;9.27;5.40;;;;;;;;;;5038758;28;20059;-77
2023/01/25 07:03:40;;;;;;;10.85;6.57;;;;;;;;;;5041377;28;20029;-78
2023/01/25 07:06:07;;;;;;;9.32;5.88;;;;;;;;;;5037877;28;20032;-78
2023/01/25 07:08:34;;;;;;;13.05;5.65;;;;;;;;;;5039302;28;20021;-78
2023/01/25 07:11:01;;;;;;;11.88;5.75;;;;;;;;;;5037247;28;20021;-76
2023/01/25 07:13:28;;;;;;;9.07;5.93;;;;;;;;;;5040636;28;20029;-77
2023/01/25 07:15:59;;;;;;;9.95;6.25;;;;;;;;;;5046959;28;20029;-77
2023/01/25 07:18:25;;;;;;;8.48;5.40;;;;;;;;;;5034851;28;20044;-78
2023/01/25 07:20:52;;;;;;;7.22;5.18;;;;;;;;;;5037090;28;20049;-77
2023/01/25 07:23:18;;;;;;;7.35;5.53;;;;;;;;;;5037904;28;20034;-77
2023/01/25 07:25:48;;;;;;;7.97;5.78;;;;;;;;;;5037112;28;20041;-77
2023/01/25 07:28:14;;;;;;;7.00;5.20;;;;;;;;;;5040902;28;20022;-78
2023/01/25 07:30:41;;;;;;;7.60;4.95;;;;;;;;;;5041290;28;20037;-78
2023/01/25 07:33:07;;;;;;;6.97;5.20;;;;;;;;;;5043499;28;20119;-77
2023/01/25 07:35:33;;;;;;;8.75;5.55;;;;;;;;;;5037652;28;20485;-77
2023/01/25 07:37:59;;;;;;;8.45;5.35;;;;;;;;;;5040342;28;20034;-78
2023/01/25 07:40:26;;;;;;;11.82;6.78;;;;;;;;;;5041760;28;20080;-78
2023/01/25 07:42:52;;;;;;;7.88;5.18;;;;;;;;;;5036106;28;20040;-78
2023/01/25 07:45:18;;;;;;;7.28;5.35;;;;;;;;;;5078158;28;20029;-78
2023/01/25 07:47:44;;;;;;;9.00;5.03;;;;;;;;;;5047708;28;20556;-78
2023/01/25 07:50:11;;;;;;;6.78;5.15;;;;;;;;;;5043060;28;20029;-78
2023/01/25 07:52:37;;;;;;;10.48;6.47;;;;;;;;;;5043836;28;20036;-77
2023/01/25 07:55:04;;;;;;;9.68;6.18;;;;;;;;;;5039007;28;20025;-78
2023/01/25 07:57:30;;;;;;;9.68;5.63;;;;;;;;;;5044618;28;20025;-78
2023/01/25 07:59:56;;;;;;;7.95;5.72;;;;;;;;;;5042579;28;20030;-78
2023/01/25 08:02:22;;;;;;;6.70;5.30;;;;;;;;;;5040346;28;20100;-77
2023/01/25 08:04:50;;;;;;;8.30;4.43;;;;;;;;;;5044633;28;20039;-78
2023/01/25 08:07:16;;;;;;;9.48;5.60;;;;;;;;;;5050769;28;20072;-78
2023/01/25 08:09:42;;;;;;;8.63;5.72;;;;;;;;;;5045687;28;20048;-78
2023/01/25 08:12:08;;;;;;;7.38;5.47;;;;;;;;;;5039471;28;20033;-78
2023/01/25 08:14:34;;;;;;;9.93;4.80;;;;;;;;;;5044357;28;20090;-77
2023/01/25 08:17:00;;;;;;;9.23;4.90;;;;;;;;;;5040547;28;20029;-77
2023/01/25 08:19:26;;;;;;;9.73;5.65;;;;;;;;;;5048260;28;20037;-77
2023/01/25 08:21:53;;;;;;;11.73;5.03;;;;;;;;;;5035724;28;20402;-77
2023/01/25 08:24:19;;;;;;;6.32;4.35;;;;;;;;;;5036492;28;20104;-77
2023/01/25 08:26:45;;;;;;;6.97;4.53;;;;;;;;;;5043546;28;20032;-77
2023/01/25 08:29:11;;;;;;;7.38;4.93;;;;;;;;;;5043052;28;20014;-77
2023/01/25 08:31:40;;;;;;;6.28;4.20;;;;;;;;;;5037401;28;20037;-77
2023/01/25 08:34:06;;;;;;;6.30;4.22;;;;;;;;;;5040444;28;20021;-77
2023/01/25 08:36:33;;;;;;;5.97;4.45;;;;;;;;;;5072005;28;20030;-77
2023/01/25 08:39:00;;;;;;;5.50;4.10;;;;;;;;;;5042083;28;20428;-77
2023/01/25 08:41:27;;;;;;;6.72;4.53;;;;;;;;;;5036677;28;20029;-77
2023/01/25 08:43:54;;;;;;;6.88;4.43;;;;;;;;;;5044455;28;20024;-77
2023/01/25 08:46:20;;;;;;;6.82;4.57;;;;;;;;;;5047241;28;20060;-78
2023/01/25 08:48:47;;;;;;;7.70;4.53;;;;;;;;;;5040059;28;20468;-76
2023/01/25 08:51:16;;;;;;;8.75;5.00;;;;;;;;;;5040889;28;20090;-77
2023/01/25 08:53:43;;;;;;;9.63;5.88;;;;;;;;;;5047246;28;20074;-77
2023/01/25 08:56:10;;;;;;;8.32;5.35;;;;;;;;;;5037955;28;20033;-78
2023/01/25 08:58:40;;;;;;;6.72;5.40;;;;;;;;;;5040275;28;20060;-77
2023/01/25 09:01:07;;;;;;;7.80;5.47;;;;;;;;;;5045441;28;20580;-78
2023/01/25 09:03:38;;;;;;;8.45;4.75;;;;;;;;;;5078663;28;20051;-78
2023/01/25 09:06:04;;;;;;;7.93;4.82;;;;;;;;;;5041419;28;20029;-78
2023/01/25 09:08:30;;;;;;;6.38;4.97;;;;;;;;;;5041665;28;20040;-77
2023/01/25 09:11:00;;;;;;;6.35;4.65;;;;;;;;;;5039775;28;20043;-78
2023/01/25 09:13:26;;;;;;;7.97;5.18;;;;;;;;;;5042382;28;20467;-77
2023/01/25 09:15:52;;;;;;;8.52;5.25;;;;;;;;;;5040075;28;20029;-77
2023/01/25 09:18:18;;;;;;;8.52;5.05;;;;;;;;;;5041317;28;20595;-78
2023/01/25 09:20:44;;;;;;;8.32;5.40;;;;;;;;;;5035370;28;20041;-78
2023/01/25 09:23:10;;;;;;;7.68;5.18;;;;;;;;;;5036642;28;20082;-77
2023/01/25 09:25:36;;;;;;;8.40;5.50;;;;;;;;;;5038895;28;20052;-78
2023/01/25 09:28:10;;;;;;;9.07;5.07;;;;;;;;;;5040472;28;20124;-78
2023/01/25 09:30:36;;;;;;;10.45;5.70;;;;;;;;;;5044501;28;20033;-78
2023/01/25 09:33:03;;;;;;;8.50;5.35;;;;;;;;;;5039405;28;20024;-78
2023/01/25 09:35:29;;;;;;;8.48;4.53;;;;;;;;;;5041600;28;20029;-77
2023/01/25 09:37:56;;;;;;;7.70;5.88;;;;;;;;;;5039629;28;20036;-78
2023/01/25 09:40:23;;;;;;;9.05;5.40;;;;;;;;;;5044996;28;20034;-78
2023/01/25 09:43:04;;;;;;;8.80;4.82;;;;;;;;;;5041628;28;20083;-77
2023/01/25 09:45:34;;;;;;;8.10;5.38;;;;;;;;;;5040711;28;20056;-77
2023/01/25 09:48:08;;;;;;;10.05;5.88;;;;;;;;;;5038903;28;20026;-77
2023/01/25 09:50:41;;;;;;;11.57;5.60;;;;;;;;;;5038648;28;20025;-77
2023/01/25 09:53:26;;;;;;;8.90;5.20;;;;;;;;;;5046003;28;20103;-77
2023/01/25 09:55:57;;;;;;;8.80;5.70;;;;;;;;;;5038483;28;20044;-77
2023/01/25 09:58:58;;;;;;;11.05;5.65;;;;;;;;;;5040259;28;20017;-77
2023/01/25 10:01:27;;;;;;;7.95;5.15;;;;;;;;;;5006358;28;20072;-78
2023/01/25 10:03:59;;;;;;;9.10;5.78;;;;;;;;;;5028871;28;20152;-77
2023/01/25 10:06:31;;;;;;;10.05;5.45;;;;;;;;;;5041553;28;20473;-77
2023/01/25 10:09:00;;;;;;;10.13;6.05;;;;;;;;;;5038800;28;20082;-77
2023/01/25 10:11:33;;;;;;;12.13;5.82;;;;;;;;;;5040882;28;20029;-76
2023/01/25 10:13:59;;;;;;;9.40;5.78;;;;;;;;;;5045457;28;20032;-77
2023/01/25 10:16:38;;;;;;;13.85;5.60;;;;;;;;;;5040498;28;20034;-77
2023/01/25 10:19:28;;;;;;;12.18;5.65;;;;;;;;;;5040530;28;20031;-77
2023/01/25 10:22:00;;;;;;;45.70;8.48;;;;;;;;;;5041705;28;20140;-77
2023/01/25 10:24:29;;;;;;;9.32;6.07;;;;;;;;;;5037433;28;20065;-77
2023/01/25 10:26:56;;;;;;;14.05;6.35;;;;;;;;;;5039707;28;20120;-76
2023/01/25 10:29:25;;;;;;;9.18;5.57;;;;;;;;;;5038427;28;20029;-77
2023/01/25 10:31:52;;;;;;;11.82;6.43;;;;;;;;;;5042723;28;20167;-77
2023/01/25 10:34:20;;;;;;;12.07;6.57;;;;;;;;;;5033103;28;20112;-77
2023/01/25 10:36:54;;;;;;;17.55;7.30;;;;;;;;;;5045707;28;20021;-77
2023/01/25 10:39:20;;;;;;;14.95;6.50;;;;;;;;;;5042944;28;20029;-77
2023/01/25 10:41:50;;;;;;;13.50;6.30;;;;;;;;;;5047606;28;20029;-77
2023/01/25 10:44:25;;;;;;;10.88;6.53;;;;;;;;;;5044210;28;20477;-78
2023/01/25 10:46:51;;;;;;;12.18;6.72;;;;;;;;;;5038181;28;20039;-77
2023/01/25 10:49:36;;;;;;;13.18;7.40;;;;;;;;;;5040407;28;20056;-78
2023/01/25 10:52:36;;;;;;;10.45;6.28;;;;;;;;;;5045532;28;20025;-77
2023/01/25 10:55:05;;;;;;;14.55;7.45;;;;;;;;;;5019570;28;20466;-78
2023/01/25 10:57:32;;;;;;;15.23;7.43;;;;;;;;;;5046904;28;20032;-77
2023/01/25 11:00:00;;;;;;;14.90;7.70;;;;;;;;;;5036539;28;20792;-77
2023/01/25 11:02:35;;;;;;;13.95;6.78;;;;;;;;;;5044219;28;20056;-78
2023/01/25 11:05:01;;;;;;;;;;;;;;;;;;5038534;28;20032;-77
2023/01/25 11:07:28;;;;;;;;;;;;;;;;;;5040015;28;20321;-77
2023/01/25 11:09:55;;;;;;;12.98;8.00;;;;;;;;;;5048553;28;20366;-77
2023/01/25 11:12:21;;;;;;;11.35;7.47;;;;;;;;;;5038720;28;20060;-77
2023/01/25 11:14:51;;;;;;;8.13;5.82;;;;;;;;;;5043209;28;20063;-77
2023/01/25 11:17:31;;;;;;;10.70;5.82;;;;;;;;;;5044815;28;20430;-77
2023/01/25 11:20:17;;;;;;;9.55;5.00;;;;;;;;;;5042682;28;20025;-77
2023/01/25 11:22:53;;;;;;;11.82;5.82;;;;;;;;;;5034338;28;20033;-77
2023/01/25 11:25:25;;;;;;;5.38;4.30;;;;;;;;;;5043003;28;20032;-76
2023/01/25 11:27:51;;;;;;;5.82;3.88;;;;;;;;;;5033441;28;20036;-77
2023/01/25 11:30:18;;;;;;;4.80;3.22;;;;;;;;;;5038613;28;20044;-77
2023/01/25 11:32:44;;;;;;;12.98;2.75;;;;;;;;;;5034600;28;20082;-77
2023/01/25 11:35:15;;;;;;;6.20;2.38;;;;;;;;;;5046674;28;20064;-77
2023/01/25 11:37:47;;;;;;;4.32;2.05;;;;;;;;;;5041158;28;20378;-77
2023/01/25 11:40:23;;;;;;;6.90;2.20;;;;;;;;;;5034495;28;20034;-76
2023/01/25 11:42:57;;;;;;;7.25;2.53;;;;;;;;;;5036615;28;20025;-77
2023/01/25 11:45:32;;;;;;;4.15;2.17;;;;;;;;;;5040743;28;20520;-77
2023/01/25 11:48:06;;;;;;;5.15;2.90;;;;;;;;;;5036211;28;20041;-77
2023/01/25 11:50:32;;;;;;;15.43;3.60;;;;;;;;;;5036323;28;20033;-77
2023/01/25 11:53:11;;;;;;;8.90;2.95;;;;;;;;;;5041248;28;20037;-77
2023/01/25 11:55:37;;;;;;;4.72;2.60;;;;;;;;;;5071824;28;20545;-77
2023/01/25 11:58:06;;;;;;;9.75;2.53;;;;;;;;;;5042967;28;20517;-77
2023/01/25 12:00:41;;;;;;;15.90;3.60;;;;;;;;;;5040661;28;20085;-77
2023/01/25 12:03:16;;;;;;;7.13;2.85;;;;;;;;;;5040984;28;20478;-77
2023/01/25 12:05:42;;;;;;;6.38;2.35;;;;;;;;;;5038239;28;20117;-77
2023/01/25 12:08:26;;;;;;;8.13;2.40;;;;;;;;;;5035085;28;20029;-77
2023/01/25 12:11:06;;;;;;;8.52;3.20;;;;;;;;;;5043195;28;20086;-76
2023/01/25 12:13:39;;;;;;;6.25;2.20;;;;;;;;;;5033485;28;20548;-76
2023/01/25 12:16:13;;;;;;;4.57;2.33;;;;;;;;;;5035178;28;20360;-76
2023/01/25 12:18:54;;;;;;;6.82;2.67;;;;;;;;;;5032577;28;20037;-76
2023/01/25 12:21:22;;;;;;;6.22;2.50;;;;;;;;;;5047731;28;20045;-77
2023/01/25 12:24:03;;;;;;;7.05;2.20;;;;;;;;;;5042977;28;20091;-76
2023/01/25 12:26:40;;;;;;;10.00;3.78;;;;;;;;;;5038056;28;20036;-77
2023/01/25 12:29:29;;;;;;;15.43;3.28;;;;;;;;;;5039826;28;20032;-77
2023/01/25 12:32:15;;;;;;;11.95;3.17;;;;;;;;;;5036397;28;20107;-76
2023/01/25 12:34:45;;;;;;;6.95;2.97;;;;;;;;;;5044400;28;20036;-76
2023/01/25 12:37:20;;;;;;;13.55;3.15;;;;;;;;;;5047526;28;20523;-76
2023/01/25 12:39:48;;;;;;;6.43;2.83;;;;;;;;;;5040366;28;20029;-76
2023/01/25 12:42:16;;;;;;;13.20;3.38;;;;;;;;;;5046086;28;20021;-76
2023/01/25 12:44:49;;;;;;;11.52;3.30;;;;;;;;;;5040988;28;20025;-76
2023/01/25 12:47:53;;;;;;;13.55;3.42;;;;;;;;;;5045785;28;20152;-76
2023/01/25 12:50:19;;;;;;;10.35;3.00;;;;;;;;;;5019035;28;20114;-77
2023/01/25 12:52:54;;;;;;;7.22;2.38;;;;;;;;;;4999521;28;20031;-76
2023/01/25 12:55:20;;;;;;;9.73;2.70;;;;;;;;;;5015441;28;20044;-76
2023/01/25 12:58:05;;;;;;;8.57;2.58;;;;;;;;;;5065581;28;20051;-76
2023/01/25 13:00:47;;;;;;;10.93;2.70;;;;;;;;;;5045673;28;20029;-76
2023/01/25 13:03:16;;;;;;;7.57;2.70;;;;;;;;;;5035282;28;20024;-76
2023/01/25 13:06:05;;;;;;;10.25;3.45;;;;;;;;;;5038530;28;20373;-76
2023/01/25 13:08:39;;;;;;;7.32;4.28;;;;;;;;;;5041681;28;20026;-76
2023/01/25 13:11:23;;;;;;;7.55;3.08;;;;;;;;;;5038109;28;20026;-77
2023/01/25 13:13:49;;;;;;;9.45;3.45;;;;;;;;;;5032340;28;20452;-77
2023/01/25 13:16:42;;;;;;;8.95;2.78;;;;;;;;;;5038939;28;20038;-78
2023/01/25 13:19:28;;;;;;;11.10;2.72;;;;;;;;;;5026572;28;20041;-77
2023/01/25 13:21:58;;;;;;;10.38;3.58;;;;;;;;;;5036297;28;20114;-75
2023/01/25 13:24:25;;;;;;;10.15;3.42;;;;;;;;;;5040138;28;20029;-74
2023/01/25 13:26:54;;;;;;;8.23;3.75;;;;;;;;;;5040015;28;20037;-75
2023/01/25 13:29:39;;;;;;;6.57;2.80;;;;;;;;;;5048888;28;20025;-75
2023/01/25 13:32:10;;;;;;;7.30;3.30;;;;;;;;;;5043178;28;20029;-76
2023/01/25 13:34:37;;;;;;;9.85;2.90;;;;;;;;;;5037907;28;20033;-75
2023/01/25 13:37:23;;;;;;;7.28;2.88;;;;;;;;;;5044228;28;20026;-76
2023/01/25 13:39:53;;;;;;;7.85;3.10;;;;;;;;;;5037682;28;20044;-76
2023/01/25 13:42:22;;;;;;;10.07;3.05;;;;;;;;;;5042335;28;20033;-75
2023/01/25 13:44:50;;;;;;;9.55;3.33;;;;;;;;;;5037627;28;20479;-75
2023/01/25 13:47:17;;;;;;;8.93;2.60;;;;;;;;;;5048305;28;20574;-75
2023/01/25 13:49:58;;;;;;;5.78;2.45;;;;;;;;;;5034271;28;20041;-75
2023/01/25 13:52:25;;;;;;;10.20;2.65;;;;;;;;;;5064020;28;20026;-74
2023/01/25 13:54:55;;;;;;;5.15;2.30;;;;;;;;;;5038734;28;20028;-75
2023/01/25 13:57:23;;;;;;;7.50;3.20;;;;;;;;;;5037213;28;20116;-74
2023/01/25 13:59:57;;;;;;;6.65;2.42;;;;;;;;;;5033034;28;20552;-78
2023/01/25 14:02:24;;;;;;;11.48;3.00;;;;;;;;;;5044935;28;20056;-77
2023/01/25 14:04:51;;;;;;;5.93;2.92;;;;;;;;;;5038621;28;20033;-77
2023/01/25 14:07:19;;;;;;;5.65;2.20;;;;;;;;;;5036566;28;20045;-76
2023/01/25 14:09:46;;;;;;;5.20;2.15;;;;;;;;;;5044146;28;20021;-77
2023/01/25 14:12:31;;;;;;;6.45;2.15;;;;;;;;;;5037646;28;20083;-77
2023/01/25 14:14:57;;;;;;;7.83;2.67;;;;;;;;;;5039640;28;20631;-76
2023/01/25 14:17:23;;;;;;;4.25;2.13;;;;;;;;;;5040330;28;20039;-77
2023/01/25 14:19:52;;;;;;;6.35;2.28;;;;;;;;;;5043324;28;20056;-76
2023/01/25 14:22:24;;;;;;;4.50;2.10;;;;;;;;;;5043698;28;20536;-77
2023/01/25 14:25:07;;;;;;;6.78;2.47;;;;;;;;;;5050231;28;20032;-77
2023/01/25 14:27:40;;;;;;;8.93;3.55;;;;;;;;;;5038524;28;20037;-77
2023/01/25 14:30:14;;;;;;;6.30;2.55;;;;;;;;;;5043466;28;20120;-77
2023/01/25 14:32:41;;;;;;;6.03;1.98;;;;;;;;;;5044027;28;20038;-77
2023/01/25 14:35:25;;;;;;;7.13;2.70;;;;;;;;;;5044950;28;20059;-74
2023/01/25 14:37:52;;;;;;;4.33;2.30;;;;;;;;;;5034932;28;20037;-77
2023/01/25 14:40:22;;;;;;;6.22;2.15;;;;;;;;;;5036890;28;20355;-77
2023/01/25 14:42:49;;;;;;;6.07;2.80;;;;;;;;;;5036416;28;20063;-77
2023/01/25 14:45:15;;;;;;;5.00;2.75;;;;;;;;;;5043375;28;20084;-77
2023/01/25 14:47:41;;;;;;;4.88;2.05;;;;;;;;;;5035774;28;20485;-77